Latest Weather Observations for Mount Boyce

IDN60801

Issued at 3:03 pm EST Monday 26 September 2016 (issued every 30 minutes, with the page automatically refreshed every 10 minutes)

About weather observations | Map of weather stations | Latest weather observations for NSW | Other Formats
Station Details ID: 063292 Name: MOUNT BOYCE AWS Lat: -33.62 Lon: 150.27 Height: 1080.0 m
Data from the previous 72 hours. | See also: Recent months at Mount Boyce
Date/Time
EST
Temp
°C
App
Temp
°C
Dew
Point
°C
Rel
Hum
%
Delta-T
°C
Wind Press
QNH
hPa
Press
MSL
hPa
Rain since
9am
mm
Dir  Spd
km/h
Gust
km/h
Spd
kts
Gust
kts
26/03:00pm 11.1 4.1 2.2 54 4.1 WSW 28 43 15 23 - - 0.0
26/02:46pm 11.1 4.1 1.9 53 4.2 W 28 46 15 25 - - 0.0
26/02:30pm 11.0 4.0 1.8 53 4.2 W 28 43 15 23 - - 0.0
26/02:00pm 11.3 5.6 2.9 56 3.9 W 22 39 12 21 - - 0.0
26/01:30pm 11.1 5.1 3.2 58 3.7 W 24 37 13 20 - - 0.0
26/01:00pm 11.6 6.4 3.6 58 3.8 W 20 35 11 19 - - 0.0
26/12:30pm 11.5 6.3 3.8 59 3.7 W 20 41 11 22 - - 0.0
26/12:00pm 11.7 8.0 4.2 60 3.6 W 13 24 7 13 - - 0.0
26/11:30am 11.2 6.8 4.7 64 3.1 W 17 28 9 15 - - 0.0
26/11:00am 10.1 5.5 3.6 64 3.0 W 17 28 9 15 - - 0.0
26/10:30am 9.6 5.0 3.8 67 2.7 W 17 24 9 13 - - 0.0
26/10:00am 9.4 5.9 3.6 67 2.7 W 11 17 6 9 - - 0.0
26/09:30am 7.6 2.7 2.1 68 2.4 W 17 24 9 13 - - 0.0
26/09:00am 7.1 3.3 1.8 69 2.3 WNW 11 19 6 10 - - 0.6
26/08:30am 5.6 1.4 1.7 76 1.7 W 13 20 7 11 - - 0.6
26/08:00am 4.5 -0.9 1.4 80 1.3 W 19 22 10 12 - - 0.6
26/07:30am 3.6 -2.0 1.0 83 1.1 W 20 28 11 15 - - 0.6
26/07:00am 3.1 -2.5 1.0 86 0.9 W 20 28 11 15 - - 0.6
26/06:30am 2.6 -3.0 1.1 90 0.6 W 20 28 11 15 - - 0.6
26/06:00am 2.7 -3.3 1.2 90 0.6 W 22 28 12 15 - - 0.6
26/05:30am 2.8 -2.6 1.5 91 0.5 W 19 24 10 13 - - 0.4
26/05:00am 2.8 -2.7 1.6 92 0.5 W 20 28 11 15 - - 0.4
26/04:30am 3.1 -2.2 1.6 90 0.6 W 19 24 10 13 - - 0.4
26/04:00am 3.4 -1.1 1.9 90 0.6 W 15 20 8 11 - - 0.4
26/03:30am 3.7 -0.8 2.4 91 0.6 WNW 15 22 8 12 - - 0.4
26/03:00am 4.0 -0.4 2.8 92 0.5 W 15 20 8 11 - - 0.4
26/02:30am 4.3 -0.8 3.0 91 0.6 W 19 26 10 14 - - 0.4
26/02:00am 4.5 0.2 3.5 93 0.4 W 15 20 8 11 - - 0.4
26/01:32am 4.7 1.3 3.8 94 0.4 W 11 15 6 8 - - 0.4
26/01:30am 4.8 1.8 3.9 94 0.4 W 9 15 5 8 - - 0.4
26/01:00am 5.5 2.2 4.6 94 0.4 W 11 15 6 8 - - 0.4
26/12:50am 5.7 2.4 4.8 94 0.4 W 11 15 6 8 - - 0.4
26/12:30am 6.0 2.8 5.1 94 0.4 WSW 11 15 6 8 - - 0.4
26/12:28am 6.0 2.8 5.1 94 0.4 WSW 11 15 6 8 - - 0.4
26/12:00am 6.8 3.0 5.7 93 0.5 W 15 22 8 12 - - 0.4
 
Date/Time
EST
Temp
°C
App
Temp
°C
Dew
Point
°C
Rel
Hum
%
Delta-T
°C
Wind Press
QNH
hPa
Press
MSL
hPa
Rain since
9am
mm
Dir  Spd
km/h
Gust
km/h
Spd
kts
Gust
kts
25/11:30pm 6.9 3.1 6.0 94 0.4 W 15 24 8 13 - - 0.4
25/11:26pm 6.9 2.8 6.0 94 0.4 W 17 24 9 13 - - 0.4
25/11:00pm 6.5 3.0 5.5 93 0.5 W 13 15 7 8 - - 0.4
25/10:30pm 6.7 3.3 5.8 94 0.4 W 13 19 7 10 - - 0.4
25/10:00pm 6.8 2.6 5.9 94 0.4 W 17 24 9 13 - - 0.4
25/09:30pm 6.8 3.7 5.7 93 0.5 W 11 15 6 8 - - 0.4
25/09:00pm 7.0 4.0 5.9 93 0.5 WSW 11 15 6 8 - - 0.4
25/08:30pm 7.2 4.2 5.8 91 0.7 WSW 11 15 6 8 - - 0.4
25/08:00pm 7.5 4.1 5.8 89 0.8 W 13 20 7 11 - - 0.4
25/07:30pm 7.9 4.5 6.0 88 0.9 W 13 19 7 10 - - 0.4
25/07:00pm 8.3 4.6 6.4 88 0.9 WSW 15 20 8 11 - - 0.4
25/06:30pm 8.3 4.7 6.6 89 0.8 WSW 15 22 8 12 - - 0.4
25/06:00pm 8.4 4.0 6.5 88 0.9 WSW 19 28 10 15 - - 0.4
25/05:41pm 8.3 4.7 6.8 90 0.7 WSW 15 20 8 11 - - 0.4
25/05:30pm 8.7 4.5 7.3 91 0.7 WSW 19 26 10 14 - - 0.4
25/05:27pm 8.7 4.2 7.0 89 0.8 WSW 20 32 11 17 - - 0.0
25/05:00pm 10.2 6.1 6.4 77 1.9 WSW 17 28 9 15 - - 0.0
25/04:30pm 10.6 6.5 6.4 75 2.1 WSW 17 32 9 17 - - 0.0
25/04:00pm 11.0 6.3 6.2 72 2.4 WSW 20 33 11 18 - - 0.0
25/03:30pm 11.3 7.0 6.8 74 2.3 WSW 19 33 10 18 - - 0.0
25/03:00pm 10.9 7.7 7.0 77 2.0 W 13 19 7 10 - - 0.0
25/02:30pm 10.6 7.8 6.9 78 1.9 W 11 17 6 9 - - 0.0
25/02:00pm 10.3 6.3 6.6 78 1.8 WSW 17 26 9 14 - - 0.0
25/01:30pm 10.7 5.0 6.8 77 2.0 WSW 26 37 14 20 - - 0.0
25/01:00pm 10.9 5.6 7.0 77 2.0 WSW 24 33 13 18 - - 0.0
25/12:37pm 10.3 4.2 6.8 79 1.8 WSW 28 46 15 25 - - 0.0
25/12:30pm 10.5 4.8 6.8 78 1.9 WSW 26 43 14 23 - - 0.0
25/12:23pm 10.6 5.5 7.5 81 1.6 WSW 24 35 13 19 - - 0.0
25/12:00pm 9.6 4.0 7.2 85 1.2 WSW 26 37 14 20 - - 0.0
25/11:44am 9.5 4.2 6.9 84 1.3 WSW 24 41 13 22 - - 0.0
25/11:43am 9.6 4.3 6.9 83 1.4 WSW 24 41 13 22 - - 0.0
25/11:30am 9.5 4.3 7.1 85 1.2 WSW 24 39 13 21 - - 0.0
25/11:00am 9.3 4.6 7.6 89 0.9 WSW 22 35 12 19 - - 0.0
25/10:30am 9.4 4.3 7.7 89 0.9 W 24 35 13 19 - - 0.0
25/10:00am 8.8 3.4 7.9 94 0.5 W 26 39 14 21 - - 0.0
25/09:36am 8.3 2.6 8.2 99 0.1 W 28 41 15 22 - - 0.0
25/09:30am 8.3 3.3 8.2 99 0.1 W 24 39 13 21 - - 0.0
25/09:00am 7.2 2.3 7.1 99 0.0 W 22 33 12 18 - - 5.0
25/08:30am 6.7 1.7 6.4 98 0.1 W 22 32 12 17 - - 5.0
25/08:00am 6.5 2.4 6.2 98 0.1 W 17 24 9 13 - - 4.8
25/07:57am 6.4 2.3 6.1 98 0.1 W 17 24 9 13 - - 4.8
25/07:30am 6.4 3.0 6.1 98 0.1 W 13 17 7 9 - - 4.6
25/07:03am 6.2 2.8 5.9 98 0.1 W 13 19 7 10 - - 3.8
25/07:00am 6.2 2.8 5.9 98 0.1 W 13 19 7 10 - - 3.8
25/06:30am 6.0 2.6 5.7 98 0.1 W 13 17 7 9 - - 3.4
25/06:00am 5.8 2.7 5.5 98 0.1 W 11 17 6 9 - - 2.6
25/05:38am 5.8 1.9 5.4 97 0.2 W 15 19 8 10 - - 2.2
25/05:30am 5.8 2.3 5.4 97 0.2 W 13 17 7 9 - - 1.6
25/05:00am 5.9 1.6 5.2 95 0.3 W 17 22 9 12 - - 0.4
25/04:30am 6.2 1.8 5.0 92 0.6 WSW 17 26 9 14 - - 0.2
25/04:00am 6.2 2.3 5.2 93 0.5 WSW 15 22 8 12 - - 0.2
25/03:30am 6.3 2.0 5.1 92 0.6 W 17 24 9 13 - - 0.2
25/03:00am 6.5 2.5 5.1 91 0.7 W 15 22 8 12 - - 0.2
25/02:30am 7.2 2.4 4.7 84 1.2 W 19 30 10 16 - - 0.0
25/02:00am 8.7 4.1 3.7 71 2.3 W 17 30 9 16 - - 0.0
25/01:30am 9.2 5.3 5.4 77 1.8 W 15 28 8 15 - - 0.0
25/01:00am 9.4 5.3 6.3 81 1.5 W 17 24 9 13 - - 0.0
25/12:30am 9.6 5.9 6.3 80 1.6 W 15 22 8 12 - - 0.0
25/12:00am 9.7 6.0 6.2 79 1.7 W 15 22 8 12 - - 0.0
 
Date/Time
EST
Temp
°C
App
Temp
°C
Dew
Point
°C
Rel
Hum
%
Delta-T
°C
Wind Press
QNH
hPa
Press
MSL
hPa
Rain since
9am
mm
Dir  Spd
km/h
Gust
km/h
Spd
kts
Gust
kts
24/11:30pm 9.7 6.7 6.2 79 1.7 W 11 15 6 8 - - 0.0
24/11:00pm 9.8 6.5 6.2 78 1.8 W 13 17 7 9 - - 0.0
24/10:30pm 9.8 6.8 6.2 78 1.8 W 11 20 6 11 - - 0.0
24/10:00pm 9.8 6.4 6.0 77 1.9 W 13 19 7 10 - - 0.0
24/09:30pm 10.4 6.3 6.0 74 2.2 WSW 17 22 9 12 - - 0.0
24/09:00pm 10.3 7.3 5.9 74 2.2 W 11 17 6 9 - - 0.0
24/08:30pm 10.7 7.7 6.1 73 2.3 WSW 11 19 6 10 - - 0.0
24/08:00pm 11.4 7.2 5.9 69 2.7 W 17 24 9 13 - - 0.0
24/07:30pm 12.1 7.6 6.2 67 3.0 W 19 26 10 14 - - 0.0
24/07:00pm 12.4 9.9 6.7 68 2.9 WSW 9 15 5 8 - - 0.0
24/06:30pm 12.7 10.1 6.3 65 3.2 WNW 9 19 5 10 - - 0.0
24/06:00pm 13.2 10.4 7.0 66 3.2 W 11 20 6 11 - - 0.0
24/05:30pm 14.3 12.0 7.6 64 3.5 W 9 17 5 9 - - 0.0
24/05:00pm 15.0 14.5 8.0 63 3.7 CALM 0 6 0 3 - - 0.0
24/04:30pm 14.7 13.3 7.3 61 3.9 WNW 4 13 2 7 - - 0.0
24/04:00pm 16.4 14.4 7.1 54 4.9 WNW 7 15 4 8 - - 0.0
24/03:30pm 16.6 14.4 6.1 50 5.4 NNW 7 13 4 7 - - 0.0
24/03:00pm 16.2 14.2 6.9 54 4.9 NW 7 11 4 6 - - 0.0
24/02:30pm 17.2 15.8 8.9 58 4.5 WNW 6 15 3 8 - - 0.0
24/02:00pm 14.9 13.6 7.7 62 3.8 NNE 4 9 2 5 - - 0.0
24/01:30pm 14.7 13.6 7.0 60 4.0 N 2 9 1 5 - - 0.0
24/01:00pm 14.3 12.9 7.4 63 3.6 ENE 4 7 2 4 - - 0.0
24/12:30pm 13.9 11.2 7.4 65 3.4 WSW 11 19 6 10 - - 0.0
24/12:00pm 14.3 11.0 6.6 60 4.0 W 13 22 7 12 - - 0.0
24/11:30am 16.0 13.2 5.3 49 5.4 WNW 9 17 5 9 - - 0.0
24/11:00am 15.0 13.0 7.3 60 4.0 WNW 7 17 4 9 - - 0.0
24/10:30am 14.9 12.8 8.4 65 3.5 W 9 15 5 8 - - 0.0
24/10:00am 13.7 11.7 8.5 71 2.8 W 9 15 5 8 - - 0.0
24/09:30am 12.3 10.1 8.0 75 2.2 WSW 9 13 5 7 - - 0.0
24/09:00am 11.7 9.3 7.0 73 2.4 W 9 13 5 7 - - 0.0
24/08:30am 11.1 9.5 8.1 82 1.6 W 6 7 3 4 - - 0.0
24/08:00am 9.9 9.1 8.0 88 1.0 WNW 2 7 1 4 - - 0.0
24/07:30am 8.9 8.4 8.0 94 0.5 CALM 0 4 0 2 - - 0.0
24/07:00am 8.3 6.6 7.7 96 0.3 W 6 9 3 5 - - 0.0
24/06:30am 7.4 5.4 7.0 97 0.2 WNW 7 11 4 6 - - 0.0
24/06:00am 7.3 5.2 6.7 96 0.3 W 7 9 4 5 - - 0.0
24/05:30am 7.4 5.3 6.7 95 0.3 WNW 7 9 4 5 - - 0.0
24/05:00am 7.4 5.3 6.7 95 0.3 WNW 7 9 4 5 - - 0.0
24/04:30am 7.5 5.5 6.9 96 0.3 W 7 11 4 6 - - 0.0
24/04:00am 7.2 6.0 6.6 96 0.3 WNW 2 9 1 5 - - 0.0
24/03:30am 7.4 5.0 7.0 97 0.2 W 9 11 5 6 - - 0.0
24/03:00am 7.2 5.1 6.8 97 0.2 WSW 7 9 4 5 - - 0.0
24/02:30am 7.4 5.3 6.7 95 0.3 WSW 7 9 4 5 - - 0.0
24/02:00am 7.7 5.6 6.8 94 0.4 W 7 7 4 4 - - 0.0
24/01:30am 7.7 6.1 6.3 91 0.7 W 4 9 2 5 - - 0.0
24/01:00am 8.0 6.4 6.3 89 0.8 SW 4 7 2 4 - - 0.0
24/12:30am 7.8 7.0 6.3 90 0.7 CALM 0 6 0 3 - - 0.0
24/12:00am 8.0 7.2 6.5 90 0.7 CALM 0 0 0 0 - - 0.0
 
Date/Time
EST
Temp
°C
App
Temp
°C
Dew
Point
°C
Rel
Hum
%
Delta-T
°C
Wind Press
QNH
hPa
Press
MSL
hPa
Rain since
9am
mm
Dir  Spd
km/h
Gust
km/h
Spd
kts
Gust
kts
23/11:30pm 8.1 7.2 6.2 88 0.9 CALM 0 0 0 0 - - 0.0
23/11:00pm 8.8 6.8 6.4 85 1.2 S 6 7 3 4 - - 0.0
23/10:30pm 9.2 7.7 6.8 85 1.2 SSE 4 7 2 4 - - 0.0
23/10:00pm 9.1 8.4 6.9 86 1.1 CALM 0 0 0 0 - - 0.0
23/09:30pm 8.8 7.4 7.1 89 0.8 NE 4 9 2 5 - - 0.0
23/09:00pm 9.2 8.0 6.6 84 1.3 E 2 7 1 4 - - 0.0
23/08:30pm 9.7 8.2 7.0 83 1.4 NE 4 9 2 5 - - 0.0
23/08:00pm 10.0 8.9 6.9 81 1.6 ENE 2 7 1 4 - - 0.0
23/07:30pm 10.1 8.6 7.0 81 1.6 ENE 4 7 2 4 - - 0.0
23/07:00pm 10.1 8.2 6.6 79 1.7 ENE 6 7 3 4 - - 0.0
23/06:30pm 10.6 8.7 6.7 77 2.0 ENE 6 9 3 5 - - 0.0
23/06:00pm 11.2 9.3 6.5 73 2.4 ESE 6 13 3 7 - - 0.0
23/05:30pm 11.8 9.2 6.3 69 2.8 SE 9 15 5 8 - - 0.0
23/05:00pm 12.9 10.6 7.4 69 2.8 SE 9 15 5 8 - - 0.0
23/04:30pm 13.5 11.7 7.3 66 3.2 SE 6 19 3 10 - - 0.0
23/04:00pm 13.1 10.6 6.5 64 3.4 SE 9 20 5 11 - - 0.0
23/03:30pm 13.5 11.1 7.1 65 3.3 S 9 15 5 8 - - 0.0

Other Formats:

Comma delimited format used in spreadsheet applications
http://www.bom.gov.au/fwo/IDN60801/IDN60801.94743.axf

JavaScript Object Notation format (JSON) in row-major order
http://www.bom.gov.au/fwo/IDN60801/IDN60801.94743.json